createdAt,value
2023-05-25T00:01:02.444Z,0.84
2023-05-25T00:01:57.189Z,0.89
2023-05-25T00:02:56.308Z,0.82
2023-05-25T00:03:56.216Z,0.87
2023-05-25T00:04:56.143Z,0.96
2023-05-25T00:05:56.115Z,0.79
2023-05-25T00:06:56.131Z,1.15
2023-05-25T00:07:56.112Z,0.89
2023-05-25T00:08:56.107Z,0.60
2023-05-25T00:09:56.100Z,0.81
2023-05-25T00:10:56.098Z,0.65
2023-05-25T00:11:56.077Z,0.78
2023-05-25T00:12:56.058Z,1.10
2023-05-25T00:13:56.059Z,1.01
2023-05-25T00:14:56.080Z,0.78
2023-05-25T00:15:56.065Z,0.60
2023-05-25T00:16:56.084Z,0.67
2023-05-25T00:17:56.089Z,0.75
2023-05-25T00:18:56.032Z,0.85
2023-05-25T00:19:56.044Z,1.00
2023-05-25T00:20:56.009Z,0.67
2023-05-25T00:21:55.986Z,0.60
2023-05-25T00:22:55.991Z,0.73
2023-05-25T00:23:55.980Z,1.20
2023-05-25T00:24:55.980Z,0.62
2023-05-25T00:25:55.975Z,0.89
2023-05-25T00:26:55.965Z,1.02
2023-05-25T00:27:55.948Z,0.86
2023-05-25T00:28:55.940Z,0.79
2023-05-25T00:29:55.945Z,0.82
2023-05-25T00:30:55.982Z,0.85
2023-05-25T00:31:55.924Z,0.90
2023-05-25T00:32:56.016Z,0.76
2023-05-25T00:33:55.914Z,0.77
2023-05-25T00:34:55.891Z,0.83
2023-05-25T00:35:55.892Z,0.57
2023-05-25T00:36:55.880Z,0.85
2023-05-25T00:37:55.892Z,0.77
2023-05-25T00:38:55.884Z,0.78
2023-05-25T00:39:55.943Z,0.70
2023-05-25T00:40:55.907Z,1.09
2023-05-25T00:41:55.896Z,0.98
2023-05-25T00:42:55.914Z,1.02
2023-05-25T00:43:55.908Z,0.63
2023-05-25T00:44:55.934Z,0.57
2023-05-25T00:45:55.924Z,0.81
2023-05-25T00:46:56.030Z,1.09
2023-05-25T00:47:56.006Z,0.71
2023-05-25T00:48:56.004Z,1.14
2023-05-25T00:49:55.971Z,0.79
2023-05-25T00:50:55.985Z,0.95
2023-05-25T00:51:56.015Z,0.77
2023-05-25T00:52:56.002Z,0.93
2023-05-25T00:53:56.047Z,1.05
2023-05-25T00:54:56.022Z,0.82
2023-05-25T00:55:56.048Z,0.75
2023-05-25T00:56:56.054Z,0.74
2023-05-25T00:57:56.057Z,1.01
2023-05-25T00:58:56.101Z,0.79
2023-05-25T00:59:56.075Z,0.66
2023-05-25T01:00:56.101Z,1.02
2023-05-25T01:01:56.122Z,0.73
2023-05-25T01:02:56.168Z,0.99
2023-05-25T01:03:56.152Z,0.86
2023-05-25T01:04:56.143Z,0.84
2023-05-25T01:05:56.163Z,0.96
2023-05-25T01:06:56.164Z,1.12
2023-05-25T01:07:56.165Z,0.80
2023-05-25T01:08:56.181Z,0.69
2023-05-25T01:09:56.190Z,0.92
2023-05-25T01:10:56.202Z,0.74
2023-05-25T01:11:56.210Z,1.15
2023-05-25T01:12:56.219Z,0.91
2023-05-25T01:13:56.246Z,1.05
2023-05-25T01:14:56.255Z,1.17
2023-05-25T01:15:56.278Z,0.93
2023-05-25T01:16:56.274Z,0.76
2023-05-25T01:17:56.326Z,0.93
2023-05-25T01:18:56.309Z,0.83
2023-05-25T01:20:56.381Z,0.88
2023-05-25T01:21:56.329Z,1.06
2023-05-25T01:22:56.296Z,0.94
2023-05-25T01:23:56.308Z,0.94
2023-05-25T01:24:56.290Z,0.85
2023-05-25T01:25:56.267Z,1.01
2023-05-25T01:26:56.275Z,0.73
2023-05-25T01:27:56.247Z,1.11
2023-05-25T01:28:56.265Z,0.96
2023-05-25T01:29:56.261Z,0.81
2023-05-25T01:30:56.249Z,0.93
2023-05-25T01:31:56.289Z,0.91
2023-05-25T01:32:56.287Z,0.95
2023-05-25T01:33:56.216Z,0.70
2023-05-25T01:34:56.204Z,0.94
2023-05-25T01:35:56.191Z,1.05
2023-05-25T01:36:56.195Z,1.16
2023-05-25T01:37:56.198Z,1.10
2023-05-25T01:38:56.188Z,0.82
2023-05-25T01:39:56.170Z,0.85
2023-05-25T01:40:56.154Z,0.69
2023-05-25T01:41:56.170Z,0.91
2023-05-25T01:42:56.156Z,1.00
2023-05-25T01:43:56.257Z,1.09
2023-05-25T01:44:56.124Z,1.30
2023-05-25T01:45:56.125Z,1.31
2023-05-25T01:46:56.127Z,1.18
2023-05-25T01:47:56.206Z,1.04
2023-05-25T01:48:56.100Z,0.92
2023-05-25T01:49:56.129Z,0.88
2023-05-25T01:50:56.099Z,1.03
2023-05-25T01:51:56.133Z,0.98
2023-05-25T01:52:56.076Z,0.81
2023-05-25T01:53:56.058Z,1.25
2023-05-25T01:54:56.046Z,0.92
2023-05-25T01:55:56.053Z,0.82
2023-05-25T01:56:56.026Z,0.99
2023-05-25T01:57:56.029Z,1.02
2023-05-25T01:58:56.017Z,1.04
2023-05-25T01:59:56.026Z,0.94
2023-05-25T02:00:56.057Z,0.98
2023-05-25T02:01:56.069Z,0.86
2023-05-25T02:02:56.049Z,1.01
2023-05-25T02:03:56.027Z,0.94
2023-05-25T02:04:55.981Z,1.06
2023-05-25T02:05:55.962Z,1.12
2023-05-25T02:06:55.966Z,0.65
2023-05-25T02:07:55.951Z,1.08
2023-05-25T02:08:55.954Z,0.95
2023-05-25T02:09:55.930Z,0.99
2023-05-25T02:10:55.939Z,1.03
2023-05-25T02:11:55.927Z,0.92
2023-05-25T02:12:55.931Z,0.93
2023-05-25T02:13:55.926Z,0.91
2023-05-25T02:14:55.892Z,0.96
2023-05-25T02:15:55.931Z,1.03
2023-05-25T02:16:55.897Z,1.07
2023-05-25T02:17:55.944Z,0.80
2023-05-25T02:18:55.888Z,0.99
2023-05-25T02:19:55.901Z,0.77
2023-05-25T02:20:55.859Z,0.68
2023-05-25T02:21:55.847Z,0.84
2023-05-25T02:22:55.837Z,0.91
2023-05-25T02:23:55.856Z,0.85
2023-05-25T02:24:55.847Z,1.11
2023-05-25T02:25:55.846Z,1.11
2023-05-25T02:26:55.818Z,0.89
2023-05-25T02:27:55.819Z,0.94
2023-05-25T02:28:55.821Z,0.88
2023-05-25T02:29:55.802Z,0.88
2023-05-25T02:30:55.801Z,0.77
2023-05-25T02:31:55.791Z,0.87
2023-05-25T02:32:55.787Z,0.87
2023-05-25T02:33:55.770Z,1.02
2023-05-25T02:34:55.772Z,0.88
2023-05-25T02:35:55.746Z,0.71
2023-05-25T02:36:55.763Z,1.05
2023-05-25T02:37:55.737Z,0.83
2023-05-25T02:38:55.738Z,0.99
2023-05-25T02:39:55.740Z,0.72
2023-05-25T02:40:55.716Z,0.93
2023-05-25T02:41:55.716Z,0.89
2023-05-25T02:42:55.714Z,0.70
2023-05-25T02:43:55.720Z,0.91
2023-05-25T02:44:55.691Z,0.97
2023-05-25T02:45:55.701Z,0.80
2023-05-25T02:46:55.708Z,0.84
2023-05-25T02:47:55.692Z,0.82
2023-05-25T02:48:55.669Z,0.64
2023-05-25T02:49:55.646Z,0.72
2023-05-25T02:50:55.649Z,0.78
2023-05-25T02:51:55.637Z,0.87
2023-05-25T02:52:55.639Z,1.02
2023-05-25T02:53:55.638Z,0.95
2023-05-25T02:54:55.616Z,1.13
2023-05-25T02:55:55.626Z,0.78
2023-05-25T02:56:55.602Z,0.54
2023-05-25T02:57:55.596Z,1.08
2023-05-25T02:58:55.606Z,0.83
2023-05-25T02:59:55.588Z,1.04
2023-05-25T03:00:55.628Z,0.85
2023-05-25T03:01:55.563Z,0.80
2023-05-25T03:02:55.591Z,1.05
2023-05-25T03:03:55.653Z,1.27
2023-05-25T03:04:55.576Z,1.02
2023-05-25T03:05:55.551Z,0.86
2023-05-25T03:06:55.529Z,0.86
2023-05-25T03:07:55.533Z,0.98
2023-05-25T03:08:55.555Z,0.87
2023-05-25T03:09:55.579Z,0.96
2023-05-25T03:10:55.584Z,1.10
2023-05-25T03:11:55.605Z,0.76
2023-05-25T03:12:55.626Z,0.71
2023-05-25T03:13:55.624Z,0.92
2023-05-25T03:14:55.654Z,1.06
2023-05-25T03:15:55.671Z,1.09
2023-05-25T03:16:55.711Z,1.06
2023-05-25T03:17:55.738Z,1.09
2023-05-25T03:18:55.729Z,1.05
2023-05-25T03:19:55.767Z,1.33
2023-05-25T03:20:55.763Z,0.65
2023-05-25T03:21:55.788Z,0.71
2023-05-25T03:22:55.806Z,0.88
2023-05-25T03:23:55.803Z,0.83
2023-05-25T03:24:55.808Z,0.92
2023-05-25T03:25:55.829Z,1.03
2023-05-25T03:26:55.844Z,1.04
2023-05-25T03:27:55.875Z,0.93
2023-05-25T03:28:55.903Z,0.75
2023-05-25T03:29:55.924Z,0.61
2023-05-25T03:30:55.932Z,1.05
2023-05-25T03:31:56.102Z,1.10
2023-05-25T03:32:56.006Z,0.80
2023-05-25T03:33:56.000Z,0.76
2023-05-25T03:34:56.009Z,0.92
2023-05-25T03:35:56.060Z,0.91
2023-05-25T03:36:56.047Z,0.95
2023-05-25T03:37:56.062Z,0.89
2023-05-25T03:38:56.138Z,1.12
2023-05-25T03:39:56.108Z,0.75
2023-05-25T03:40:56.129Z,0.86
2023-05-25T03:41:56.146Z,1.09
2023-05-25T03:42:56.158Z,1.01
2023-05-25T03:43:56.190Z,1.00
2023-05-25T03:44:56.209Z,0.76
2023-05-25T03:45:56.266Z,1.05
2023-05-25T03:46:56.252Z,0.78
2023-05-25T03:47:56.331Z,0.87
2023-05-25T03:48:56.290Z,1.01
2023-05-25T03:49:56.312Z,1.06
2023-05-25T03:50:56.322Z,1.13
2023-05-25T03:51:56.412Z,0.98
2023-05-25T03:52:56.375Z,0.98
2023-05-25T03:53:56.406Z,0.78
2023-05-25T03:54:56.415Z,0.94
2023-05-25T03:55:56.433Z,1.08
2023-05-25T03:56:56.463Z,0.99
2023-05-25T03:57:56.478Z,1.08
2023-05-25T03:58:56.496Z,1.10
2023-05-25T03:59:56.514Z,1.05
2023-05-25T04:00:56.543Z,0.63
2023-05-25T04:01:56.587Z,0.94
2023-05-25T04:02:56.867Z,0.96
2023-05-25T04:03:56.728Z,0.73
2023-05-25T04:04:56.624Z,1.10
2023-05-25T04:05:56.639Z,1.09
2023-05-25T04:06:56.652Z,0.94
2023-05-25T04:07:56.671Z,0.65
2023-05-25T04:08:56.699Z,0.88
2023-05-25T04:09:56.715Z,1.11
2023-05-25T04:10:56.731Z,0.62
2023-05-25T04:11:56.758Z,0.97
2023-05-25T04:12:56.817Z,0.76
2023-05-25T04:13:56.795Z,0.83
2023-05-25T04:14:56.808Z,1.18
2023-05-25T04:15:56.860Z,0.91
2023-05-25T04:16:56.840Z,0.93
2023-05-25T04:17:56.948Z,0.95
2023-05-25T04:18:56.884Z,1.05
2023-05-25T04:19:56.963Z,1.12
2023-05-25T04:20:56.901Z,1.01
2023-05-25T04:21:56.922Z,0.83
2023-05-25T04:22:56.948Z,0.76
2023-05-25T04:23:56.960Z,0.83
2023-05-25T04:24:56.966Z,1.10
2023-05-25T04:25:56.985Z,0.94
2023-05-25T04:26:56.995Z,0.73
2023-05-25T04:27:57.021Z,0.91
2023-05-25T04:28:57.079Z,1.05
2023-05-25T04:29:57.077Z,0.87
2023-05-25T04:30:57.323Z,0.86
2023-05-25T04:31:57.121Z,0.91
2023-05-25T04:32:57.182Z,1.01
2023-05-25T04:33:57.172Z,0.72
2023-05-25T04:34:57.173Z,0.89
2023-05-25T04:35:57.204Z,1.00
2023-05-25T04:36:57.210Z,0.91
2023-05-25T04:37:57.225Z,0.87
2023-05-25T04:38:57.244Z,0.88
2023-05-25T04:39:57.251Z,0.86
2023-05-25T04:40:57.289Z,0.76
2023-05-25T04:41:57.348Z,0.90
2023-05-25T04:42:57.332Z,1.07
2023-05-25T04:44:09.104Z,0.79
2023-05-25T04:44:58.372Z,0.77
2023-05-25T04:45:57.339Z,0.94
2023-05-25T04:46:57.324Z,0.95
2023-05-25T04:47:57.312Z,1.03
2023-05-25T04:48:57.302Z,1.03
2023-05-25T04:49:57.278Z,1.03
2023-05-25T04:50:57.291Z,1.04
2023-05-25T04:51:57.292Z,0.90
2023-05-25T04:52:57.253Z,0.94
2023-05-25T04:53:57.261Z,0.76
2023-05-25T04:54:57.253Z,0.56
2023-05-25T04:55:57.240Z,0.85
2023-05-25T04:56:57.220Z,1.12
2023-05-25T04:57:57.224Z,0.88
2023-05-25T04:58:57.260Z,0.98
2023-05-25T04:59:57.221Z,1.13
2023-05-25T05:00:57.212Z,1.09
2023-05-25T05:01:57.190Z,0.88
2023-05-25T05:02:57.252Z,0.90
2023-05-25T05:03:57.286Z,1.18
2023-05-25T05:04:57.164Z,1.08
2023-05-25T05:05:57.179Z,0.68
2023-05-25T05:06:58.912Z,1.24
2023-05-25T05:07:57.177Z,0.94
2023-05-25T05:08:57.206Z,0.91
2023-05-25T05:09:57.226Z,0.78
2023-05-25T05:10:57.227Z,1.15
2023-05-25T05:11:57.285Z,1.28
2023-05-25T05:12:57.269Z,0.85
2023-05-25T05:13:57.315Z,0.78
2023-05-25T05:14:57.295Z,0.89
2023-05-25T05:15:57.330Z,0.95
2023-05-25T05:16:57.446Z,1.47
2023-05-25T05:17:57.393Z,1.05
2023-05-25T05:18:57.374Z,0.98
2023-05-25T05:19:57.409Z,0.92
2023-05-25T05:20:57.404Z,1.09
2023-05-25T05:21:57.442Z,1.07
2023-05-25T05:22:57.458Z,0.97
2023-05-25T05:23:57.474Z,1.20
2023-05-25T05:24:57.494Z,0.80
2023-05-25T05:25:57.503Z,0.93
2023-05-25T05:26:59.104Z,1.05
2023-05-25T05:27:57.666Z,0.99
2023-05-25T05:28:57.563Z,0.75
2023-05-25T05:29:57.607Z,1.10
2023-05-25T05:30:57.643Z,1.10
2023-05-25T05:31:57.743Z,0.99
2023-05-25T05:32:57.717Z,1.29
2023-05-25T05:33:57.824Z,1.17
2023-05-25T05:34:57.712Z,1.63
2023-05-25T05:35:57.746Z,1.03
2023-05-25T05:36:58.833Z,1.12
2023-05-25T05:37:57.826Z,1.36
2023-05-25T05:38:57.737Z,1.61
2023-05-25T05:39:57.758Z,2.01
2023-05-25T05:40:57.744Z,1.77
2023-05-25T05:41:57.739Z,1.61
2023-05-25T05:42:57.765Z,1.62
2023-05-25T05:43:57.850Z,1.57
2023-05-25T05:44:57.739Z,1.90
2023-05-25T05:45:57.757Z,1.70
2023-05-25T05:46:57.805Z,1.59
2023-05-25T05:47:57.830Z,1.71
2023-05-25T05:48:57.796Z,1.92
2023-05-25T05:49:57.850Z,1.84
2023-05-25T05:50:57.858Z,2.30
2023-05-25T05:51:57.908Z,1.90
2023-05-25T05:52:57.970Z,1.86
2023-05-25T05:53:58.015Z,2.30
2023-05-25T05:54:58.074Z,1.67
2023-05-25T05:55:58.139Z,2.06
2023-05-25T05:56:58.214Z,1.76
2023-05-25T05:57:58.252Z,2.44
2023-05-25T05:58:58.324Z,2.10
2023-05-25T05:59:58.355Z,1.70
2023-05-25T06:00:58.414Z,2.47
2023-05-25T06:01:58.484Z,2.02
2023-05-25T06:02:58.615Z,1.50
2023-05-25T06:03:58.557Z,2.28
2023-05-25T06:04:58.621Z,1.97
2023-05-25T06:05:58.717Z,1.72
2023-05-25T06:06:58.714Z,1.88
2023-05-25T06:07:58.760Z,1.47
2023-05-25T06:08:58.772Z,2.28
2023-05-25T06:09:58.832Z,1.62
2023-05-25T06:10:58.890Z,1.44
2023-05-25T06:11:58.893Z,1.64
2023-05-25T06:12:58.955Z,1.47
2023-05-25T06:13:58.986Z,2.04
2023-05-25T06:14:59.007Z,1.27
2023-05-25T06:15:59.240Z,1.96
2023-05-25T06:16:59.145Z,1.28
2023-05-25T06:17:59.125Z,1.57
2023-05-25T06:18:59.151Z,1.59
2023-05-25T06:19:59.238Z,1.59
2023-05-25T06:20:59.198Z,1.27
2023-05-25T06:21:59.233Z,1.68
2023-05-25T06:22:59.254Z,1.50
2023-05-25T06:23:59.299Z,1.44
2023-05-25T06:24:59.330Z,1.40
2023-05-25T06:25:59.352Z,1.39
2023-05-25T06:26:59.371Z,1.60
2023-05-25T06:27:59.378Z,1.39
2023-05-25T06:28:59.634Z,1.27
2023-05-25T06:29:59.421Z,1.58
2023-05-25T06:30:59.470Z,1.66
2023-05-25T06:31:59.659Z,1.51
2023-05-25T06:32:59.529Z,1.58
2023-05-25T06:33:59.648Z,1.63
2023-05-25T06:34:59.537Z,1.71
2023-05-25T06:35:59.566Z,1.54
2023-05-25T06:36:59.584Z,1.75
2023-05-25T06:37:59.607Z,1.81
2023-05-25T06:38:59.646Z,2.83
2023-05-25T06:39:59.632Z,2.63
2023-05-25T06:40:59.662Z,3.58
2023-05-25T06:41:59.709Z,4.50
2023-05-25T06:42:59.833Z,2.91
2023-05-25T06:43:59.824Z,3.06
2023-05-25T06:44:59.867Z,2.30
2023-05-25T06:45:59.953Z,2.49
2023-05-25T06:47:00.016Z,2.60
2023-05-25T06:48:00.106Z,2.63
2023-05-25T06:49:00.135Z,2.36
2023-05-25T06:50:00.190Z,2.04
2023-05-25T06:51:00.235Z,2.31
2023-05-25T06:52:00.314Z,2.13
2023-05-25T06:53:00.502Z,2.21
2023-05-25T06:54:00.646Z,2.18
2023-05-25T06:55:00.457Z,2.64
2023-05-25T06:56:00.581Z,2.46
2023-05-25T06:57:00.565Z,2.35
2023-05-25T06:58:00.612Z,2.18
2023-05-25T06:59:01.150Z,1.95
2023-05-25T07:00:00.749Z,2.33
2023-05-25T07:01:00.815Z,2.96
2023-05-25T07:02:00.813Z,2.66
2023-05-25T07:03:00.910Z,2.80
2023-05-25T07:04:00.976Z,3.17
2023-05-25T07:05:01.008Z,3.22
2023-05-25T07:06:01.023Z,3.69
2023-05-25T07:07:01.098Z,3.17
2023-05-25T07:08:01.087Z,3.40
2023-05-25T07:09:01.135Z,3.04
2023-05-25T07:10:01.182Z,2.96
2023-05-25T07:11:01.192Z,3.60
2023-05-25T07:12:01.219Z,2.89
2023-05-25T07:13:01.266Z,3.28
2023-05-25T07:14:01.657Z,2.79
2023-05-25T07:15:01.396Z,3.45
2023-05-25T07:16:01.725Z,3.40
2023-05-25T07:17:01.542Z,3.34
2023-05-25T07:18:01.559Z,3.78
2023-05-25T07:19:01.680Z,3.20
2023-05-25T07:20:01.578Z,3.78
2023-05-25T07:21:01.577Z,2.89
2023-05-25T07:22:01.580Z,3.73
2023-05-25T07:23:01.593Z,3.58
2023-05-25T07:24:01.686Z,3.16
2023-05-25T07:25:01.572Z,3.71
2023-05-25T07:27:01.592Z,3.21
2023-05-25T07:28:01.642Z,3.48
2023-05-25T07:29:01.689Z,3.34
2023-05-25T07:30:01.665Z,4.04
2023-05-25T07:31:01.703Z,3.33
2023-05-25T07:32:01.601Z,3.40
2023-05-25T07:33:01.656Z,2.97
2023-05-25T07:34:01.618Z,3.19
2023-05-25T07:35:01.656Z,3.07
2023-05-25T07:36:01.726Z,2.78
2023-05-25T07:37:01.790Z,2.58
2023-05-25T07:38:01.825Z,2.09
2023-05-25T07:39:02.196Z,1.94
2023-05-25T07:40:01.922Z,2.11
2023-05-25T07:41:02.005Z,2.23
2023-05-25T07:42:02.003Z,1.91
2023-05-25T07:43:02.032Z,1.11
2023-05-25T07:44:02.178Z,1.82
2023-05-25T07:45:02.056Z,1.79
2023-05-25T07:46:02.056Z,1.73
2023-05-25T07:47:02.164Z,1.86
2023-05-25T07:48:02.150Z,1.79
2023-05-25T07:49:02.104Z,1.37
2023-05-25T07:50:02.120Z,1.37
2023-05-25T07:51:02.133Z,1.55
2023-05-25T07:52:02.137Z,1.73
2023-05-25T07:53:02.136Z,1.49
2023-05-25T07:54:02.151Z,1.55
2023-05-25T07:55:02.217Z,1.46
2023-05-25T07:56:02.228Z,1.26
2023-05-25T07:57:02.291Z,1.50
2023-05-25T07:58:02.367Z,1.48
2023-05-25T07:59:02.673Z,1.46
2023-05-25T08:00:02.479Z,1.00
2023-05-25T08:01:02.531Z,1.15
2023-05-25T08:02:02.685Z,1.23
2023-05-25T08:03:02.840Z,1.09
2023-05-25T08:04:02.782Z,1.26
2023-05-25T08:05:02.808Z,1.19
2023-05-25T08:06:02.800Z,1.46
2023-05-25T08:07:02.858Z,1.39
2023-05-25T08:08:02.879Z,1.30
2023-05-25T08:09:03.176Z,1.42
2023-05-25T08:10:02.971Z,1.28
2023-05-25T08:11:02.996Z,2.85
2023-05-25T08:12:23.888Z,1.37
2023-05-25T08:13:04.084Z,1.47
2023-05-25T08:14:03.197Z,1.33
2023-05-25T08:15:03.030Z,1.28
2023-05-25T08:16:03.025Z,1.42
2023-05-25T08:17:03.057Z,1.17
2023-05-25T08:18:03.044Z,1.62
2023-05-25T08:19:03.209Z,1.50
2023-05-25T08:20:03.038Z,1.26
2023-05-25T08:21:02.962Z,2.05
2023-05-25T08:22:02.954Z,1.90
2023-05-25T08:23:03.187Z,2.13
2023-05-25T08:24:03.207Z,2.26
2023-05-25T08:25:02.956Z,1.65
2023-05-25T08:26:11.569Z,1.37
2023-05-25T08:27:03.948Z,1.51
2023-05-25T08:28:02.934Z,1.70
2023-05-25T08:29:02.919Z,1.26
2023-05-25T08:30:02.918Z,1.66
2023-05-25T08:31:02.926Z,1.23
2023-05-25T08:32:02.911Z,1.54
2023-05-25T08:33:02.948Z,1.49
2023-05-25T08:34:02.887Z,1.69
2023-05-25T08:35:02.873Z,1.39
2023-05-25T08:36:02.865Z,1.78
2023-05-25T08:37:02.897Z,1.31
2023-05-25T08:38:02.990Z,1.22
2023-05-25T08:39:03.024Z,1.82
2023-05-25T08:40:03.104Z,1.33
2023-05-25T08:41:03.132Z,1.41
2023-05-25T08:42:03.191Z,1.38
2023-05-25T08:43:03.238Z,1.30
2023-05-25T08:44:03.296Z,1.70
2023-05-25T08:45:03.342Z,1.69
2023-05-25T08:46:03.398Z,1.46
2023-05-25T08:47:03.457Z,1.58
2023-05-25T08:48:03.547Z,1.67
2023-05-25T08:49:03.679Z,1.30
2023-05-25T08:50:03.583Z,1.65
2023-05-25T08:51:03.627Z,1.40
2023-05-25T08:52:03.670Z,1.74
2023-05-25T08:53:03.721Z,1.24
2023-05-25T08:54:03.729Z,1.21
2023-05-25T08:55:03.812Z,1.35
2023-05-25T08:56:03.830Z,1.52
2023-05-25T08:57:03.883Z,1.17
2023-05-25T08:58:03.886Z,1.22
2023-05-25T08:59:06.623Z,0.98
2023-05-25T09:00:03.937Z,0.98
2023-05-25T09:01:03.932Z,1.00
2023-05-25T09:02:03.923Z,1.05
2023-05-25T09:03:03.941Z,1.12
2023-05-25T09:04:03.973Z,1.21
2023-05-25T09:05:03.903Z,1.23
2023-05-25T09:06:03.890Z,1.04
2023-05-25T09:07:10.518Z,0.78
2023-05-25T09:08:04.873Z,1.17
2023-05-25T09:09:03.900Z,1.01
2023-05-25T09:10:03.883Z,1.15
2023-05-25T09:11:03.860Z,0.70
2023-05-25T09:12:03.856Z,0.79
2023-05-25T09:13:16.614Z,0.94
2023-05-25T09:14:04.859Z,1.32
2023-05-25T09:15:03.832Z,0.99
2023-05-25T09:16:03.844Z,1.11
2023-05-25T09:17:03.827Z,0.90
2023-05-25T09:18:05.334Z,1.50
2023-05-25T09:19:04.224Z,0.81
2023-05-25T09:20:03.847Z,0.83
2023-05-25T09:21:03.855Z,1.02
2023-05-25T09:22:15.117Z,0.64
2023-05-25T09:23:04.777Z,0.70
2023-05-25T09:24:04.224Z,0.83
2023-05-25T09:25:03.765Z,1.37
2023-05-25T09:26:03.768Z,0.89
2023-05-25T09:27:03.765Z,0.75
2023-05-25T09:28:21.228Z,1.48
2023-05-25T09:29:04.765Z,0.98
2023-05-25T09:30:03.742Z,1.01
2023-05-25T09:31:03.734Z,0.74
2023-05-25T09:32:03.772Z,1.03
2023-05-25T09:33:03.749Z,1.24
2023-05-25T09:34:03.732Z,1.33
2023-05-25T09:35:03.708Z,1.23
2023-05-25T09:36:03.694Z,1.49
2023-05-25T09:37:03.893Z,1.47
2023-05-25T09:38:03.906Z,1.67
2023-05-25T09:39:03.973Z,1.09
2023-05-25T09:40:03.679Z,1.50
2023-05-25T09:41:03.660Z,1.34
2023-05-25T09:42:03.699Z,1.41
2023-05-25T09:43:03.745Z,1.32
2023-05-25T09:44:11.024Z,1.18
2023-05-25T09:45:04.780Z,1.22
2023-05-25T09:46:03.817Z,0.94
2023-05-25T09:47:04.234Z,1.14
2023-05-25T09:48:03.763Z,0.86
2023-05-25T09:49:04.244Z,0.96
2023-05-25T09:50:03.754Z,0.90
2023-05-25T09:51:03.739Z,1.19
2023-05-25T09:52:03.719Z,0.95
2023-05-25T09:53:03.721Z,1.23
2023-05-25T09:54:03.731Z,1.01
2023-05-25T09:55:03.711Z,1.31
2023-05-25T09:56:04.260Z,1.39
2023-05-25T09:57:03.719Z,1.12
2023-05-25T09:58:03.755Z,1.19
2023-05-25T09:59:04.244Z,1.03
2023-05-25T10:00:03.831Z,0.74
2023-05-25T10:01:03.775Z,1.22
2023-05-25T10:02:03.811Z,1.10
2023-05-25T10:03:03.802Z,1.03
2023-05-25T10:04:05.544Z,1.06
2023-05-25T10:05:04.308Z,1.12
2023-05-25T10:06:03.797Z,1.20
2023-05-25T10:07:03.790Z,1.19
2023-05-25T10:08:03.803Z,1.07
2023-05-25T10:09:03.805Z,1.10
2023-05-25T10:10:03.805Z,0.90
2023-05-25T10:11:04.014Z,1.15
2023-05-25T10:12:03.910Z,0.98
2023-05-25T10:13:03.941Z,0.99
2023-05-25T10:14:04.051Z,0.87
2023-05-25T10:15:03.943Z,0.95
2023-05-25T10:16:03.987Z,1.21
2023-05-25T10:17:03.962Z,0.99
2023-05-25T10:18:03.977Z,0.93
2023-05-25T10:19:04.252Z,1.28
2023-05-25T10:20:04.037Z,0.91
2023-05-25T10:21:04.578Z,0.83
2023-05-25T10:22:04.043Z,0.80
2023-05-25T10:23:04.053Z,0.89
2023-05-25T10:24:04.275Z,1.09
2023-05-25T10:25:04.085Z,1.51
2023-05-25T10:26:04.085Z,1.52
2023-05-25T10:27:14.764Z,1.55
2023-05-25T10:28:05.095Z,1.58
2023-05-25T10:29:04.065Z,1.54
2023-05-25T10:30:04.072Z,1.26
2023-05-25T10:31:04.087Z,1.64
2023-05-25T10:32:04.124Z,1.49
2023-05-25T10:33:04.103Z,1.43
2023-05-25T10:34:04.269Z,1.62
2023-05-25T10:35:04.041Z,1.37
2023-05-25T10:37:04.036Z,1.18
2023-05-25T10:38:04.034Z,1.43
2023-05-25T10:39:04.016Z,1.58
2023-05-25T10:40:04.005Z,1.06
2023-05-25T10:41:04.026Z,1.68
2023-05-25T10:42:04.000Z,1.41
2023-05-25T10:43:04.014Z,1.60
2023-05-25T10:44:04.013Z,1.61
2023-05-25T10:45:03.990Z,1.72
2023-05-25T10:46:03.986Z,1.09
2023-05-25T10:47:04.029Z,1.02
2023-05-25T10:48:04.006Z,1.46
2023-05-25T10:49:04.255Z,1.01
2023-05-25T10:50:03.949Z,1.34
2023-05-25T10:51:03.953Z,1.20
2023-05-25T10:52:03.935Z,1.01
2023-05-25T10:53:03.952Z,0.94
2023-05-25T10:54:03.976Z,0.98
2023-05-25T10:55:04.038Z,1.33
2023-05-25T10:56:04.085Z,1.36
2023-05-25T10:57:04.134Z,1.37
2023-05-25T10:58:04.192Z,1.45
2023-05-25T10:59:04.286Z,1.16
2023-05-25T11:00:04.285Z,1.54
2023-05-25T11:01:04.415Z,1.31
2023-05-25T11:02:05.343Z,0.87
2023-05-25T11:03:04.501Z,1.05
2023-05-25T11:04:04.791Z,1.27
2023-05-25T11:05:04.569Z,0.99
2023-05-25T11:06:04.610Z,1.25
2023-05-25T11:07:04.660Z,1.25
2023-05-25T11:08:06.304Z,1.32
2023-05-25T11:09:04.674Z,1.55
2023-05-25T11:10:04.652Z,1.60
2023-05-25T11:11:04.664Z,1.38
2023-05-25T11:12:04.655Z,1.61
2023-05-25T11:13:04.650Z,2.03
2023-05-25T11:14:04.655Z,1.66
2023-05-25T11:15:04.644Z,2.14
2023-05-25T11:16:04.669Z,1.49
2023-05-25T11:17:04.696Z,1.32
2023-05-25T11:18:04.676Z,1.56
2023-05-25T11:19:04.631Z,1.45
2023-05-25T11:20:04.621Z,1.93
2023-05-25T11:21:04.599Z,1.69
2023-05-25T11:22:07.419Z,1.55
2023-05-25T11:23:04.571Z,1.59
2023-05-25T11:24:04.649Z,1.77
2023-05-25T11:25:04.563Z,1.31
2023-05-25T11:26:04.550Z,1.44
2023-05-25T11:27:04.554Z,1.36
2023-05-25T11:28:04.556Z,1.42
2023-05-25T11:29:04.529Z,1.57
2023-05-25T11:30:04.532Z,1.17
2023-05-25T11:31:04.574Z,1.47
2023-05-25T11:32:04.501Z,1.38
2023-05-25T11:33:04.571Z,1.51
2023-05-25T11:34:04.493Z,1.26
2023-05-25T11:35:04.485Z,1.34
2023-05-25T11:36:04.486Z,1.39
2023-05-25T11:37:04.488Z,1.52
2023-05-25T11:38:04.474Z,2.11
2023-05-25T11:39:13.843Z,1.27
2023-05-25T11:40:05.465Z,1.49
2023-05-25T11:41:04.470Z,1.80
2023-05-25T11:42:04.450Z,1.53
2023-05-25T11:43:04.441Z,1.67
2023-05-25T11:44:04.421Z,1.55
2023-05-25T11:45:04.436Z,1.43
2023-05-25T11:46:04.428Z,1.38
2023-05-25T11:47:04.414Z,1.53
2023-05-25T11:48:04.434Z,1.05
2023-05-25T11:49:04.483Z,1.34
2023-05-25T11:50:04.666Z,1.28
2023-05-25T11:51:04.600Z,1.33
2023-05-25T11:52:04.690Z,1.18
2023-05-25T11:53:04.717Z,1.27
2023-05-25T11:54:04.796Z,1.33
2023-05-25T11:55:04.844Z,1.25
2023-05-25T11:56:08.394Z,1.36
2023-05-25T11:57:04.926Z,0.97
2023-05-25T11:58:04.897Z,1.22
2023-05-25T11:59:04.888Z,1.16
2023-05-25T12:00:04.865Z,1.31
2023-05-25T12:01:04.857Z,1.25
2023-05-25T12:02:04.877Z,1.18
2023-05-25T12:03:04.891Z,1.65
2023-05-25T12:04:04.957Z,1.42
2023-05-25T12:05:04.868Z,1.29
2023-05-25T12:06:04.822Z,1.04
2023-05-25T12:07:04.880Z,0.92
2023-05-25T12:08:04.826Z,1.42
2023-05-25T12:09:04.811Z,1.00
2023-05-25T12:10:04.777Z,1.31
2023-05-25T12:11:04.792Z,1.13
2023-05-25T12:12:04.787Z,1.12
2023-05-25T12:13:04.767Z,1.40
2023-05-25T12:14:04.750Z,0.95
2023-05-25T12:15:04.754Z,0.83
2023-05-25T12:16:04.735Z,1.11
2023-05-25T12:17:04.784Z,0.80
2023-05-25T12:18:04.759Z,1.06
2023-05-25T12:19:04.728Z,0.82
2023-05-25T12:20:04.808Z,0.81
2023-05-25T12:21:04.707Z,0.93
2023-05-25T12:22:04.717Z,1.38
2023-05-25T12:23:04.836Z,1.12
2023-05-25T12:24:04.852Z,1.04
2023-05-25T12:25:04.910Z,0.72
2023-05-25T12:26:04.956Z,0.95
2023-05-25T12:27:05.037Z,0.85
2023-05-25T12:28:05.083Z,0.82
2023-05-25T12:29:05.141Z,0.95
2023-05-25T12:30:05.196Z,0.79
2023-05-25T12:31:05.288Z,1.02
2023-05-25T12:32:05.308Z,0.92
2023-05-25T12:33:05.389Z,1.13
2023-05-25T12:34:05.422Z,0.91
2023-05-25T12:35:05.495Z,0.84
2023-05-25T12:36:05.523Z,1.05
2023-05-25T12:37:05.570Z,0.86
2023-05-25T12:38:05.621Z,0.98
2023-05-25T12:39:05.670Z,1.04
2023-05-25T12:40:05.740Z,0.93
2023-05-25T12:41:05.788Z,1.11
2023-05-25T12:42:05.861Z,0.76
2023-05-25T12:43:05.895Z,1.01
2023-05-25T12:44:06.821Z,0.93
2023-05-25T12:45:06.017Z,1.25
2023-05-25T12:46:06.058Z,1.14
2023-05-25T12:47:06.280Z,0.85
2023-05-25T12:48:06.331Z,1.37
2023-05-25T12:49:06.256Z,1.43
2023-05-25T12:50:06.285Z,1.39
2023-05-25T12:51:06.325Z,1.21
2023-05-25T12:52:06.397Z,1.18
2023-05-25T12:53:06.442Z,1.61
2023-05-25T12:54:06.553Z,1.31
2023-05-25T12:55:06.851Z,0.93
2023-05-25T12:56:06.721Z,1.43
2023-05-25T12:57:06.657Z,1.48
2023-05-25T12:58:06.687Z,0.94
2023-05-25T12:59:06.771Z,1.20
2023-05-25T13:00:06.869Z,1.37
2023-05-25T13:01:06.845Z,1.42
2023-05-25T13:02:06.919Z,1.25
2023-05-25T13:03:07.025Z,1.07
2023-05-25T13:04:06.989Z,1.09
2023-05-25T13:05:07.015Z,0.96
2023-05-25T13:06:07.040Z,1.24
2023-05-25T13:07:07.107Z,1.33
2023-05-25T13:08:07.342Z,1.13
2023-05-25T13:09:07.193Z,1.34
2023-05-25T13:10:07.384Z,1.02
2023-05-25T13:11:07.296Z,1.25
2023-05-25T13:12:07.329Z,1.31
2023-05-25T13:13:07.419Z,1.08
2023-05-25T13:14:07.491Z,1.26
2023-05-25T13:15:07.462Z,1.47
2023-05-25T13:16:07.630Z,1.64
2023-05-25T13:17:07.541Z,1.42
2023-05-25T13:18:07.781Z,1.70
2023-05-25T13:19:07.645Z,1.76
2023-05-25T13:20:07.714Z,1.91
2023-05-25T13:21:07.966Z,2.23
2023-05-25T13:22:07.761Z,1.98